This is the latest recevied weather packets stored in our database for station/object KD9YTS-13. If no packets are shown the sender has not sent any weather packets the latest 10 day(s).
| Time | Temp. | Humidity | Pressure | Rain* | Wind** | Luminosity | Snow |
|---|---|---|---|---|---|---|---|
| 1777949782 | -17.78° C | 100% | - | 0 mm | - | - | - |
| 1777948583 | 11.11° C | 4% | - | 0 mm | - | - | - |
| 1777947383 | 11.67° C | 4% | - | 0 mm | - | - | - |
| 1777946184 | 12.22° C | 4% | - | 0 mm | - | - | - |
| 1777944983 | -17.78° C | 100% | - | 0 mm | - | - | - |
| 1777943784 | -17.78° C | 100% | - | 0 mm | - | - | - |
| 1777942583 | -17.78° C | 100% | - | 0 mm | - | - | - |
| 1777902984 | -17.78° C | 100% | - | 0 mm | - | - | - |
| 1777890982 | -17.78° C | 100% | - | 0 mm | - | - | - |
| 1777888582 | -17.78° C | 100% | - | 0 mm | - | - | - |
| 1777886183 | -17.78° C | 100% | - | 0 mm | - | - | - |
| 1777884982 | -17.78° C | 100% | - | 0 mm | - | - | - |
| 1777883782 | 6.67° C | 6% | - | 0 mm | - | - | - |
| 1777882582 | -17.78° C | 100% | - | 0 mm | - | - | - |
| 1777881382 | -17.78° C | 100% | - | 0 mm | - | - | - |
| 1777880184 | -17.78° C | 100% | - | 0 mm | - | - | - |
| 1777877782 | 6.67° C | 5% | - | 0 mm | - | - | - |
| 1777876584 | -17.78° C | 100% | - | 0 mm | - | - | - |
| 1777869382 | -17.78° C | 100% | - | 0 mm | - | - | - |
| 1777866982 | 12.78° C | 4% | - | 0 mm | - | - | - |
| 1777865784 | -17.78° C | 100% | - | 0 mm | - | - | - |
| 1777864582 | -17.78° C | 100% | - | 0 mm | - | - | - |
| 1777862182 | -17.78° C | 100% | - | 0 mm | - | - | - |
| 1777852584 | -17.78° C | 100% | - | 0 mm | - | - | - |
| 1777851383 | -17.78° C | 100% | - | 0 mm | - | - | - |
* Rain latest hour (hover to see other rain measurements)
** Current wind speed in m/s (hover to see current wind gust speed)